createdAt,value
2016-12-29T00:00:31.266Z,53.40
2016-12-29T00:01:33.302Z,53.30
2016-12-29T00:02:32.223Z,53.30
2016-12-29T00:03:45.522Z,53.40
2016-12-29T00:04:35.555Z,53.40
2016-12-29T00:05:32.835Z,53.50
2016-12-29T00:06:37.835Z,53.40
2016-12-29T00:07:37.810Z,53.40
2016-12-29T00:08:31.833Z,53.30
2016-12-29T00:09:32.725Z,53.40
2016-12-29T00:10:32.834Z,53.30
2016-12-29T00:11:33.805Z,53.30
2016-12-29T00:12:33.316Z,53.40
2016-12-29T00:13:31.570Z,53.30
2016-12-29T00:14:26.770Z,53.40
2016-12-29T00:15:32.436Z,53.50
2016-12-29T00:16:28.846Z,53.30
2016-12-29T00:17:30.846Z,is
2016-12-29T00:18:33.405Z,53.30
2016-12-29T00:19:28.409Z,53.30
2016-12-29T00:20:30.362Z,53.30
2016-12-29T00:21:33.220Z,53.40
2016-12-29T00:22:26.906Z,53.40
2016-12-29T00:23:23.450Z,53.40
2016-12-29T00:24:39.569Z,53.50
2016-12-29T00:25:29.314Z,53.50
2016-12-29T00:26:29.833Z,53.40
2016-12-29T00:27:33.095Z,53.40
2016-12-29T00:28:37.253Z,53.40
2016-12-29T00:29:31.501Z,53.60
2016-12-29T00:30:28.784Z,53.30
2016-12-29T00:31:28.973Z,53.30
2016-12-29T00:32:29.604Z,53.30
2016-12-29T00:33:24.499Z,53.30
2016-12-29T00:34:26.841Z,53.50
2016-12-29T00:35:32.198Z,53.40
2016-12-29T00:36:33.210Z,53.60
2016-12-29T00:37:28.395Z,53.50
2016-12-29T00:38:32.061Z,53.60
2016-12-29T00:39:40.629Z,53.40
2016-12-29T00:40:29.841Z,53.50
2016-12-29T00:41:27.512Z,53.50
2016-12-29T00:42:33.569Z,53.40
2016-12-29T00:43:28.106Z,53.40
2016-12-29T00:44:29.709Z,is
2016-12-29T00:45:28.003Z,53.40
2016-12-29T00:46:34.620Z,53.50
2016-12-29T00:47:34.212Z,53.50
2016-12-29T00:48:30.264Z,53.40
2016-12-29T00:49:36.614Z,53.50
2016-12-29T00:50:27.564Z,53.50
2016-12-29T00:51:35.564Z,53.50
2016-12-29T00:52:35.753Z,53.90
2016-12-29T00:53:33.418Z,53.50
2016-12-29T00:54:33.251Z,53.60
2016-12-29T00:55:33.809Z,53.40
2016-12-29T00:56:23.500Z,53.40
2016-12-29T00:57:33.073Z,53.50
2016-12-29T00:58:39.911Z,53.50
2016-12-29T00:59:27.250Z,53.40
2016-12-29T01:00:31.643Z,53.50
2016-12-29T01:01:27.704Z,53.40
2016-12-29T01:02:37.682Z,53.40
2016-12-29T01:03:32.372Z,53.40
2016-12-29T01:04:39.331Z,53.50
2016-12-29T01:05:34.964Z,53.50
2016-12-29T01:06:32.467Z,53.50
2016-12-29T01:07:33.964Z,53.40
2016-12-29T01:08:30.324Z,53.50
2016-12-29T01:09:25.196Z,is
2016-12-29T01:10:31.548Z,53.50
2016-12-29T01:11:38.082Z,53.60
2016-12-29T01:12:38.334Z,53.60
2016-12-29T01:13:28.435Z,53.50
2016-12-29T01:14:33.331Z,53.50
2016-12-29T01:15:33.046Z,53.50
2016-12-29T01:16:32.643Z,53.50
2016-12-29T01:17:34.116Z,53.40
2016-12-29T01:18:41.721Z,53.50
2016-12-29T01:19:40.328Z,53.50
2016-12-29T01:20:37.794Z,is
2016-12-29T01:21:37.779Z,53.50
2016-12-29T01:22:31.761Z,53.50
2016-12-29T01:23:29.239Z,53.40
2016-12-29T01:24:33.532Z,53.50
2016-12-29T01:25:31.826Z,53.50
2016-12-29T01:26:27.914Z,53.40
2016-12-29T01:27:33.098Z,53.50
2016-12-29T01:28:32.822Z,53.40
2016-12-29T01:29:32.604Z,53.50
2016-12-29T01:30:34.076Z,53.40
2016-12-29T01:31:29.833Z,53.40
2016-12-29T01:32:27.012Z,53.50
2016-12-29T01:33:31.052Z,53.40
2016-12-29T01:34:29.202Z,53.50
2016-12-29T01:35:40.015Z,53.50
2016-12-29T01:36:27.322Z,53.50
2016-12-29T01:37:32.819Z,53.50
2016-12-29T01:38:32.312Z,53.60
2016-12-29T01:39:31.408Z,53.70
2016-12-29T01:40:33.427Z,53.60
2016-12-29T01:41:33.968Z,is
2016-12-29T01:42:35.156Z,53.70
2016-12-29T01:43:27.058Z,53.50
2016-12-29T01:44:42.564Z,53.60
2016-12-29T01:45:35.260Z,53.80
2016-12-29T01:46:29.302Z,53.60
2016-12-29T01:47:29.000Z,53.60
2016-12-29T01:48:33.562Z,53.80
2016-12-29T01:49:25.543Z,53.90
2016-12-29T01:50:31.852Z,53.80
2016-12-29T01:51:33.370Z,53.70
2016-12-29T01:52:32.651Z,53.80
2016-12-29T01:53:26.685Z,53.70
2016-12-29T01:54:32.490Z,53.80
2016-12-29T01:55:32.763Z,53.80
2016-12-29T01:56:23.545Z,53.90
2016-12-29T01:57:27.040Z,54.00
2016-12-29T01:58:27.548Z,54.00
2016-12-29T01:59:28.489Z,54.00
2016-12-29T02:00:33.008Z,54.10
2016-12-29T02:01:33.451Z,54.20
2016-12-29T02:02:34.594Z,54.00
2016-12-29T02:03:26.860Z,54.10
2016-12-29T02:04:26.861Z,54.00
2016-12-29T02:05:32.318Z,54.00
2016-12-29T02:06:24.090Z,53.90
2016-12-29T02:07:32.560Z,53.70
2016-12-29T02:08:30.632Z,53.70
2016-12-29T02:09:30.772Z,53.70
2016-12-29T02:10:40.812Z,53.50
2016-12-29T02:11:29.438Z,53.50
2016-12-29T02:12:31.451Z,is
2016-12-29T02:13:34.148Z,53.50
2016-12-29T02:14:32.523Z,53.20
2016-12-29T02:15:41.288Z,53.20
2016-12-29T02:16:25.348Z,53.30
2016-12-29T02:17:31.541Z,53.20
2016-12-29T02:18:36.776Z,53.10
2016-12-29T02:19:26.591Z,53.00
2016-12-29T02:20:28.468Z,53.10
2016-12-29T02:21:32.592Z,53.00
2016-12-29T02:22:26.792Z,52.90
2016-12-29T02:23:28.597Z,52.80
2016-12-29T02:24:33.560Z,52.70
2016-12-29T02:25:25.550Z,52.60
2016-12-29T02:26:29.468Z,52.60
2016-12-29T02:27:22.974Z,52.50
2016-12-29T02:28:35.848Z,52.50
2016-12-29T02:29:29.408Z,52.50
2016-12-29T02:30:28.167Z,52.40
2016-12-29T02:31:28.522Z,52.40
2016-12-29T02:32:29.820Z,52.50
2016-12-29T02:33:38.710Z,52.50
2016-12-29T02:34:33.100Z,52.40
2016-12-29T02:35:33.478Z,52.40
2016-12-29T02:36:35.831Z,52.50
2016-12-29T02:37:35.562Z,52.50
2016-12-29T02:38:29.332Z,52.40
2016-12-29T02:39:33.539Z,52.40
2016-12-29T02:40:28.178Z,52.80
2016-12-29T02:41:32.779Z,52.40
2016-12-29T02:42:28.460Z,52.60
2016-12-29T02:43:27.537Z,52.40
2016-12-29T02:44:28.993Z,52.50
2016-12-29T02:45:30.814Z,52.40
2016-12-29T02:46:42.711Z,52.50
2016-12-29T02:47:36.478Z,53.00
2016-12-29T02:48:46.185Z,52.50
2016-12-29T02:49:30.479Z,52.60
2016-12-29T02:50:33.022Z,52.60
2016-12-29T02:51:32.640Z,52.60
2016-12-29T02:52:30.000Z,52.50
2016-12-29T02:53:33.673Z,52.50
2016-12-29T02:54:30.142Z,52.60
2016-12-29T02:55:31.826Z,52.70
2016-12-29T02:56:33.051Z,52.60
2016-12-29T02:57:25.755Z,52.60
2016-12-29T02:58:41.043Z,52.70
2016-12-29T02:59:28.340Z,52.70
2016-12-29T03:00:30.099Z,52.70
2016-12-29T03:01:39.329Z,52.70
2016-12-29T03:02:28.001Z,52.60
2016-12-29T03:03:27.621Z,52.80
2016-12-29T03:04:24.481Z,52.80
2016-12-29T03:05:29.001Z,52.70
2016-12-29T03:06:33.437Z,52.70
2016-12-29T03:07:32.661Z,52.80
2016-12-29T03:08:23.377Z,52.80
2016-12-29T03:09:33.670Z,52.70
2016-12-29T03:10:32.380Z,is
2016-12-29T03:11:28.773Z,52.80
2016-12-29T03:12:27.094Z,52.80
2016-12-29T03:13:27.991Z,52.80
2016-12-29T03:14:33.522Z,52.80
2016-12-29T03:15:35.357Z,52.90
2016-12-29T03:16:35.972Z,52.80
2016-12-29T03:17:32.385Z,52.90
2016-12-29T03:18:30.434Z,52.80
2016-12-29T03:19:33.679Z,52.90
2016-12-29T03:20:35.677Z,52.80
2016-12-29T03:21:32.091Z,53.00
2016-12-29T03:22:29.047Z,52.90
2016-12-29T03:23:31.721Z,53.00
2016-12-29T03:24:30.419Z,52.90
2016-12-29T03:25:29.782Z,53.00
2016-12-29T03:26:33.419Z,52.90
2016-12-29T03:27:30.609Z,52.90
2016-12-29T03:28:30.571Z,53.00
2016-12-29T03:29:35.439Z,53.00
2016-12-29T03:30:39.126Z,53.00
2016-12-29T03:31:35.779Z,53.00
2016-12-29T03:32:38.286Z,53.10
2016-12-29T03:33:27.812Z,53.00
2016-12-29T03:34:35.949Z,53.00
2016-12-29T03:35:28.695Z,53.00
2016-12-29T03:36:40.158Z,53.00
2016-12-29T03:37:30.422Z,is
2016-12-29T03:38:42.201Z,53.10
2016-12-29T03:39:27.305Z,53.10
2016-12-29T03:40:35.457Z,53.10
2016-12-29T03:41:27.563Z,53.10
2016-12-29T03:42:32.550Z,53.10
2016-12-29T03:43:33.218Z,53.10
2016-12-29T03:44:32.679Z,53.10
2016-12-29T03:45:23.771Z,53.00
2016-12-29T03:46:29.539Z,53.00
2016-12-29T03:47:30.794Z,53.20
2016-12-29T03:48:28.493Z,53.20
2016-12-29T03:49:29.423Z,53.00
2016-12-29T03:50:31.815Z,53.10
2016-12-29T03:51:33.323Z,53.20
2016-12-29T03:52:31.126Z,53.10
2016-12-29T03:53:30.030Z,53.20
2016-12-29T03:54:29.647Z,53.20
2016-12-29T03:55:32.354Z,53.30
2016-12-29T03:56:40.430Z,53.30
2016-12-29T03:57:29.041Z,53.20
2016-12-29T03:58:25.456Z,53.50
2016-12-29T03:59:28.018Z,53.20
2016-12-29T04:00:28.477Z,53.40
2016-12-29T04:01:32.433Z,53.30
2016-12-29T04:02:36.722Z,53.40
2016-12-29T04:03:33.129Z,53.30
2016-12-29T04:04:34.191Z,53.20
2016-12-29T04:05:31.969Z,53.30
2016-12-29T04:06:31.638Z,53.30
2016-12-29T04:07:26.663Z,53.50
2016-12-29T04:08:24.749Z,53.30
2016-12-29T04:09:31.751Z,53.30
2016-12-29T04:10:31.626Z,53.40
2016-12-29T04:11:26.814Z,53.30
2016-12-29T04:12:30.821Z,53.40
2016-12-29T04:13:31.637Z,53.40
2016-12-29T04:14:40.093Z,53.50
2016-12-29T04:15:30.531Z,53.40
2016-12-29T04:16:33.020Z,53.50
2016-12-29T04:17:30.595Z,53.50
2016-12-29T04:18:33.956Z,53.50
2016-12-29T04:19:29.860Z,53.50
2016-12-29T04:20:49.495Z,53.50
2016-12-29T04:21:29.027Z,53.50
2016-12-29T04:22:37.634Z,53.50
2016-12-29T04:23:32.570Z,53.50
2016-12-29T04:24:33.357Z,53.50
2016-12-29T04:25:28.823Z,53.50
2016-12-29T04:26:24.340Z,53.50
2016-12-29T04:27:38.845Z,53.60
2016-12-29T04:28:34.699Z,53.60
2016-12-29T04:29:32.888Z,is
2016-12-29T04:30:36.552Z,53.60
2016-12-29T04:31:32.745Z,is
2016-12-29T04:32:32.665Z,53.70
2016-12-29T04:33:28.815Z,53.80
2016-12-29T04:34:31.721Z,53.60
2016-12-29T04:35:33.642Z,53.70
2016-12-29T04:36:27.694Z,53.70
2016-12-29T04:37:28.505Z,53.80
2016-12-29T04:38:41.591Z,53.80
2016-12-29T04:40:38.164Z,53.70
2016-12-29T04:42:29.175Z,53.70
2016-12-29T04:43:26.721Z,53.70
2016-12-29T04:44:33.391Z,53.60
2016-12-29T04:45:34.645Z,53.70
2016-12-29T04:46:27.468Z,53.60
2016-12-29T04:47:34.680Z,53.80
2016-12-29T04:48:33.722Z,52.80
2016-12-29T04:49:37.345Z,53.70
2016-12-29T04:50:38.894Z,53.70
2016-12-29T04:52:43.798Z,53.80
2016-12-29T04:53:27.923Z,53.70
2016-12-29T04:56:49.100Z,53.60
2016-12-29T04:57:28.343Z,53.50
2016-12-29T04:58:39.437Z,53.60
2016-12-29T04:59:32.813Z,53.60
2016-12-29T05:00:26.033Z,53.80
2016-12-29T05:01:51.681Z,53.80
2016-12-29T05:02:32.507Z,53.60
2016-12-29T05:03:22.634Z,53.70
2016-12-29T05:04:28.663Z,53.70
2016-12-29T05:06:29.502Z,53.60
2016-12-29T05:07:22.070Z,53.60
2016-12-29T05:08:39.513Z,53.50
2016-12-29T05:09:23.872Z,53.60
2016-12-29T05:10:47.152Z,53.60
2016-12-29T05:11:30.045Z,53.70
2016-12-29T05:12:34.527Z,53.60
2016-12-29T05:13:39.254Z,53.60
2016-12-29T05:15:28.546Z,53.70
2016-12-29T05:16:41.260Z,53.70
2016-12-29T05:17:31.525Z,is
2016-12-29T05:18:29.791Z,53.60
2016-12-29T05:19:32.553Z,53.80
2016-12-29T05:20:27.168Z,53.60
2016-12-29T05:21:32.321Z,53.50
2016-12-29T05:22:34.812Z,53.60
2016-12-29T05:23:27.816Z,53.60
2016-12-29T05:24:26.549Z,is
2016-12-29T05:25:34.468Z,53.70
2016-12-29T05:26:34.065Z,53.60
2016-12-29T05:27:29.692Z,53.50
2016-12-29T05:28:30.140Z,53.60
2016-12-29T05:29:33.125Z,53.50
2016-12-29T05:30:34.736Z,53.70
2016-12-29T05:31:30.671Z,53.70
2016-12-29T05:32:31.297Z,53.60
2016-12-29T05:33:28.537Z,53.50
2016-12-29T05:34:32.078Z,53.60
2016-12-29T05:35:33.045Z,53.60
2016-12-29T05:36:21.618Z,53.70
2016-12-29T05:37:28.452Z,53.60
2016-12-29T05:38:37.228Z,53.50
2016-12-29T05:39:39.731Z,53.70
2016-12-29T05:40:24.800Z,53.60
2016-12-29T05:41:28.728Z,54.20
2016-12-29T05:42:38.570Z,53.60
2016-12-29T05:43:29.965Z,53.70
2016-12-29T05:44:37.400Z,is
2016-12-29T05:45:33.561Z,53.80
2016-12-29T05:47:00.418Z,53.70
2016-12-29T05:47:39.742Z,53.90
2016-12-29T05:48:29.091Z,53.70
2016-12-29T05:49:38.696Z,53.80
2016-12-29T05:50:33.339Z,53.70
2016-12-29T05:51:39.424Z,53.90
2016-12-29T05:52:34.293Z,53.80
2016-12-29T05:53:36.961Z,53.80
2016-12-29T05:54:36.870Z,53.70
2016-12-29T05:55:30.540Z,53.80
2016-12-29T05:56:29.301Z,53.90
2016-12-29T05:57:27.791Z,53.90
2016-12-29T05:58:34.476Z,54.00
2016-12-29T05:59:32.568Z,54.00
2016-12-29T06:00:27.586Z,53.90
2016-12-29T06:01:33.549Z,53.90
2016-12-29T06:02:28.347Z,54.00
2016-12-29T06:03:29.447Z,53.90
2016-12-29T06:04:25.540Z,53.90
2016-12-29T06:05:32.762Z,53.80
2016-12-29T06:06:31.354Z,54.00
2016-12-29T06:07:32.528Z,53.90
2016-12-29T06:08:21.847Z,53.90
2016-12-29T06:09:29.569Z,53.90
2016-12-29T06:10:34.228Z,53.90
2016-12-29T06:11:32.680Z,54.00
2016-12-29T06:12:30.786Z,53.90
2016-12-29T06:13:35.901Z,53.90
2016-12-29T06:14:27.477Z,53.90
2016-12-29T06:15:31.937Z,53.90
2016-12-29T06:16:33.620Z,54.00
2016-12-29T06:17:23.405Z,54.10
2016-12-29T06:18:34.465Z,54.20
2016-12-29T06:19:28.504Z,54.10
2016-12-29T06:20:28.629Z,54.10
2016-12-29T06:21:32.718Z,54.20
2016-12-29T06:22:35.636Z,is
2016-12-29T06:23:27.316Z,54.00
2016-12-29T06:24:32.128Z,54.20
2016-12-29T06:25:34.207Z,54.20
2016-12-29T06:26:29.559Z,53.60
2016-12-29T06:27:27.799Z,54.10
2016-12-29T06:28:19.321Z,54.00
2016-12-29T06:29:32.748Z,54.00
2016-12-29T06:30:32.097Z,54.20
2016-12-29T06:31:12.016Z,is
2016-12-29T06:32:31.724Z,54.10
2016-12-29T06:33:36.242Z,54.20
2016-12-29T06:34:27.185Z,54.00
2016-12-29T06:35:21.956Z,is
2016-12-29T06:36:33.527Z,54.00
2016-12-29T06:37:30.637Z,54.20
2016-12-29T06:38:36.280Z,is
2016-12-29T06:39:29.905Z,54.10
2016-12-29T06:40:37.561Z,54.00
2016-12-29T06:41:27.616Z,54.00
2016-12-29T06:42:29.820Z,54.20
2016-12-29T06:43:22.861Z,54.40
2016-12-29T06:44:33.427Z,54.10
2016-12-29T06:45:25.934Z,54.30
2016-12-29T06:46:25.866Z,54.40
2016-12-29T06:47:22.508Z,54.20
2016-12-29T06:48:33.115Z,54.20
2016-12-29T06:49:32.019Z,54.20
2016-12-29T06:50:29.035Z,54.20
2016-12-29T06:51:43.945Z,54.20
2016-12-29T06:52:31.323Z,54.20
2016-12-29T06:53:28.003Z,54.20
2016-12-29T06:54:27.616Z,54.20
2016-12-29T06:55:27.767Z,54.20
2016-12-29T06:56:33.504Z,54.30
2016-12-29T06:57:27.807Z,54.30
2016-12-29T06:58:30.721Z,54.20
2016-12-29T06:59:47.921Z,54.30
2016-12-29T07:00:31.667Z,54.10
2016-12-29T07:01:27.541Z,54.30
2016-12-29T07:02:30.423Z,54.20
2016-12-29T07:03:31.602Z,54.20
2016-12-29T07:05:33.579Z,54.20
2016-12-29T07:06:27.440Z,54.20
2016-12-29T07:07:28.024Z,54.20
2016-12-29T07:08:21.952Z,54.20
2016-12-29T07:09:26.597Z,54.30
2016-12-29T07:10:29.576Z,is
2016-12-29T07:11:36.017Z,54.20
2016-12-29T07:12:30.104Z,54.30
2016-12-29T07:13:29.723Z,54.20
2016-12-29T07:14:25.803Z,54.20
2016-12-29T07:15:31.631Z,54.30
2016-12-29T07:16:42.924Z,54.20
2016-12-29T07:17:32.172Z,54.20
2016-12-29T07:18:34.922Z,54.20
2016-12-29T07:19:27.564Z,54.30
2016-12-29T07:20:34.973Z,54.20
2016-12-29T07:21:27.110Z,54.20
2016-12-29T07:22:29.582Z,54.20
2016-12-29T07:24:33.952Z,is
2016-12-29T07:25:38.466Z,54.30
2016-12-29T07:26:39.038Z,54.20
2016-12-29T07:27:33.024Z,54.20
2016-12-29T07:28:27.977Z,54.20
2016-12-29T07:29:38.723Z,54.20
2016-12-29T07:30:52.756Z,54.20
2016-12-29T07:31:32.186Z,54.20
2016-12-29T07:32:41.112Z,54.30
2016-12-29T07:33:33.948Z,54.30
2016-12-29T07:34:20.727Z,54.20
2016-12-29T07:35:21.362Z,54.20
2016-12-29T07:36:40.040Z,54.20
2016-12-29T07:37:33.032Z,54.30
2016-12-29T07:38:32.275Z,54.20
2016-12-29T07:39:33.863Z,54.20
2016-12-29T07:40:25.471Z,54.20
2016-12-29T07:41:42.064Z,54.30
2016-12-29T07:42:43.921Z,54.30
2016-12-29T07:43:33.287Z,54.40
2016-12-29T07:44:34.519Z,54.20
2016-12-29T07:45:27.873Z,54.20
2016-12-29T07:46:22.440Z,54.20
2016-12-29T07:47:28.697Z,54.20
2016-12-29T07:48:22.784Z,54.30
2016-12-29T07:49:35.487Z,54.30
2016-12-29T07:50:29.459Z,54.30
2016-12-29T07:51:53.984Z,54.20
2016-12-29T07:52:32.913Z,54.80
2016-12-29T07:53:32.660Z,54.30
2016-12-29T07:54:33.485Z,54.20
2016-12-29T07:55:31.718Z,54.20
2016-12-29T07:56:32.526Z,54.20
2016-12-29T07:57:25.846Z,54.20
2016-12-29T07:58:34.044Z,54.20
2016-12-29T07:59:23.483Z,54.20
2016-12-29T08:00:23.770Z,54.20
2016-12-29T08:01:23.339Z,54.20
2016-12-29T08:03:25.627Z,54.20
2016-12-29T08:04:41.780Z,54.30
2016-12-29T08:05:25.574Z,54.20
2016-12-29T08:06:40.379Z,54.20
2016-12-29T08:07:23.173Z,54.20
2016-12-29T08:08:36.578Z,54.20
2016-12-29T08:09:26.684Z,54.20
2016-12-29T08:10:28.309Z,54.20
2016-12-29T08:11:23.474Z,54.30
2016-12-29T08:12:35.732Z,54.10
2016-12-29T08:13:43.556Z,54.20
2016-12-29T08:14:21.733Z,54.30
2016-12-29T08:15:31.573Z,54.30
2016-12-29T08:17:32.237Z,54.20
2016-12-29T08:18:00.684Z,54.20
2016-12-29T08:18:18.033Z,54.20
2016-12-29T08:19:27.834Z,54.10
2016-12-29T08:20:32.949Z,54.00
2016-12-29T08:21:26.573Z,54.20
2016-12-29T08:22:28.879Z,54.20
2016-12-29T08:23:34.371Z,54.10
2016-12-29T08:24:28.256Z,54.10
2016-12-29T08:25:34.569Z,54.10
2016-12-29T08:27:03.530Z,53.90
2016-12-29T08:27:32.747Z,54.20
2016-12-29T08:28:43.719Z,54.00
2016-12-29T08:29:28.202Z,54.10
2016-12-29T08:30:37.160Z,54.10
2016-12-29T08:31:41.738Z,54.30
2016-12-29T08:32:27.930Z,54.30
2016-12-29T08:33:30.469Z,54.30
2016-12-29T08:34:27.830Z,54.30
2016-12-29T08:35:30.710Z,54.30
2016-12-29T08:36:34.789Z,54.60
2016-12-29T08:37:28.114Z,54.50
2016-12-29T08:38:45.979Z,54.20
2016-12-29T08:40:00.859Z,54.20
2016-12-29T08:40:43.267Z,54.30
2016-12-29T08:41:36.756Z,54.10
2016-12-29T08:42:30.723Z,54.10
2016-12-29T08:43:23.573Z,54.10
2016-12-29T08:45:06.733Z,54.20
2016-12-29T08:45:23.579Z,54.00
2016-12-29T08:46:28.572Z,54.10
2016-12-29T08:48:34.598Z,54.10
2016-12-29T08:49:45.231Z,54.10
2016-12-29T08:50:22.280Z,54.10
2016-12-29T08:51:29.332Z,54.20
2016-12-29T08:52:28.592Z,54.40
2016-12-29T08:53:38.071Z,54.40
2016-12-29T08:54:35.412Z,41.80
2016-12-29T08:55:28.083Z,37.50
2016-12-29T08:56:34.958Z,36.40
2016-12-29T08:57:35.747Z,36.70
2016-12-29T08:58:35.450Z,36.80
2016-12-29T08:59:40.817Z,37.30
2016-12-29T09:00:53.619Z,37.60
2016-12-29T09:01:31.072Z,37.70
2016-12-29T09:02:28.924Z,38.00
2016-12-29T09:03:33.070Z,38.60
2016-12-29T09:05:38.704Z,38.40
2016-12-29T09:06:49.005Z,39.40
2016-12-29T09:07:33.976Z,40.20
2016-12-29T09:08:33.516Z,40.40
2016-12-29T09:09:32.088Z,40.30
2016-12-29T09:10:28.196Z,42.10
2016-12-29T09:11:28.997Z,43.00
2016-12-29T09:12:26.788Z,44.00
2016-12-29T09:13:27.581Z,43.50
2016-12-29T09:14:30.925Z,44.00
2016-12-29T09:15:30.827Z,is
2016-12-29T09:16:30.505Z,43.30
2016-12-29T09:17:23.847Z,43.00
2016-12-29T09:18:32.746Z,43.00
2016-12-29T09:19:23.745Z,43.20
2016-12-29T09:20:31.745Z,43.40
2016-12-29T09:21:25.743Z,43.30
2016-12-29T09:22:32.666Z,43.40
2016-12-29T09:23:34.053Z,43.50
2016-12-29T09:24:25.065Z,43.60
2016-12-29T09:25:28.944Z,43.60
2016-12-29T09:26:30.746Z,43.50
2016-12-29T09:27:28.044Z,43.60
2016-12-29T09:28:39.808Z,43.50
2016-12-29T09:29:27.738Z,43.60
2016-12-29T09:30:22.057Z,43.50
2016-12-29T09:31:23.788Z,43.70
2016-12-29T09:32:25.806Z,43.70
2016-12-29T09:33:26.387Z,43.70
2016-12-29T09:34:21.932Z,43.90
2016-12-29T09:35:32.642Z,43.80
2016-12-29T09:36:32.121Z,is
2016-12-29T09:37:34.380Z,44.20
2016-12-29T09:38:33.571Z,44.20
2016-12-29T09:39:40.436Z,44.30
2016-12-29T09:40:25.799Z,44.30
2016-12-29T09:41:40.770Z,44.40
2016-12-29T09:42:33.563Z,44.40
2016-12-29T09:43:35.634Z,44.60
2016-12-29T09:44:33.311Z,44.80
2016-12-29T09:45:40.546Z,44.90
2016-12-29T09:46:33.622Z,44.80
2016-12-29T09:47:32.899Z,44.70
2016-12-29T09:48:38.574Z,44.80
2016-12-29T09:49:34.184Z,45.00
2016-12-29T09:50:29.853Z,45.10
2016-12-29T09:51:26.564Z,45.20
2016-12-29T09:52:33.547Z,45.20
2016-12-29T09:53:33.494Z,45.10
2016-12-29T09:54:34.352Z,45.20
2016-12-29T09:55:33.206Z,45.20
2016-12-29T09:56:39.469Z,45.30
2016-12-29T09:57:26.307Z,45.20
2016-12-29T09:58:31.876Z,45.30
2016-12-29T09:59:33.546Z,45.30
2016-12-29T10:00:44.541Z,45.30
2016-12-29T10:01:28.466Z,45.60
2016-12-29T10:02:37.645Z,45.60
2016-12-29T10:03:32.576Z,45.50
2016-12-29T10:04:32.634Z,45.70
2016-12-29T10:05:33.628Z,45.70
2016-12-29T10:06:31.866Z,45.70
2016-12-29T10:07:31.051Z,45.90
2016-12-29T10:08:32.966Z,45.90
2016-12-29T10:09:28.415Z,45.90
2016-12-29T10:10:36.435Z,45.80
2016-12-29T10:11:27.486Z,45.90
2016-12-29T10:12:37.609Z,45.90
2016-12-29T10:13:36.548Z,46.00
2016-12-29T10:14:37.218Z,45.20
2016-12-29T10:15:38.856Z,46.10
2016-12-29T10:16:27.316Z,46.10
2016-12-29T10:17:39.257Z,46.20
2016-12-29T10:18:35.974Z,46.20
2016-12-29T10:19:39.016Z,46.30
2016-12-29T10:20:32.756Z,46.50
2016-12-29T10:21:32.689Z,46.50
2016-12-29T10:22:45.551Z,46.60
2016-12-29T10:23:38.579Z,46.50
2016-12-29T10:24:38.605Z,46.60
2016-12-29T10:25:40.306Z,46.70
2016-12-29T10:26:33.384Z,46.60
2016-12-29T10:27:34.567Z,46.60
2016-12-29T10:28:41.278Z,46.70
2016-12-29T10:29:38.874Z,46.80
2016-12-29T10:30:32.140Z,46.80
2016-12-29T10:31:32.968Z,46.80
2016-12-29T10:32:33.262Z,46.80
2016-12-29T10:33:24.731Z,46.80
2016-12-29T10:34:28.041Z,46.80
2016-12-29T10:35:38.812Z,46.80
2016-12-29T10:36:31.638Z,46.90
2016-12-29T10:37:42.177Z,47.00
2016-12-29T10:38:32.967Z,47.10
2016-12-29T10:39:38.807Z,47.20
2016-12-29T10:40:34.750Z,47.20
2016-12-29T10:41:33.060Z,47.20
2016-12-29T10:42:32.306Z,47.20
2016-12-29T10:43:32.816Z,47.10
2016-12-29T10:44:33.281Z,47.20
2016-12-29T10:45:37.646Z,47.30
2016-12-29T10:46:38.565Z,47.40
2016-12-29T10:47:32.755Z,47.40
2016-12-29T10:48:39.696Z,47.20
2016-12-29T10:49:35.518Z,47.40
2016-12-29T10:50:34.691Z,47.30
2016-12-29T10:51:34.073Z,47.40
2016-12-29T10:52:30.651Z,47.50
2016-12-29T10:53:33.177Z,47.50
2016-12-29T10:54:45.659Z,is
2016-12-29T10:55:29.097Z,47.60
2016-12-29T10:56:38.074Z,47.60
2016-12-29T10:57:26.756Z,47.60
2016-12-29T10:58:39.053Z,47.60
2016-12-29T10:59:33.965Z,47.60
2016-12-29T11:00:42.357Z,47.60
2016-12-29T11:01:45.253Z,47.70
2016-12-29T11:02:36.312Z,47.70
2016-12-29T11:03:32.894Z,47.70
2016-12-29T11:04:39.641Z,47.80
2016-12-29T11:05:31.331Z,47.80
2016-12-29T11:06:26.483Z,47.80
2016-12-29T11:07:40.841Z,47.90
2016-12-29T11:08:31.761Z,47.90
2016-12-29T11:09:53.966Z,48.00
2016-12-29T11:10:39.898Z,47.90
2016-12-29T11:11:26.393Z,48.00
2016-12-29T11:12:34.337Z,48.10
2016-12-29T11:13:45.931Z,48.20
2016-12-29T11:14:34.959Z,48.20
2016-12-29T11:15:24.331Z,48.30
2016-12-29T11:16:35.359Z,48.30
2016-12-29T11:17:39.776Z,48.30
2016-12-29T11:18:33.540Z,48.20
2016-12-29T11:19:44.877Z,48.20
2016-12-29T11:20:35.685Z,48.20
2016-12-29T11:21:27.707Z,48.20
2016-12-29T11:22:33.709Z,48.20
2016-12-29T11:23:33.829Z,48.30
2016-12-29T11:24:34.710Z,48.20
2016-12-29T11:25:34.529Z,48.20
2016-12-29T11:26:39.051Z,48.20
2016-12-29T11:27:27.098Z,48.20
2016-12-29T11:28:41.476Z,48.20
2016-12-29T11:29:32.614Z,48.30
2016-12-29T11:30:32.084Z,48.20
2016-12-29T11:31:32.186Z,48.20
2016-12-29T11:32:30.309Z,48.30
2016-12-29T11:33:28.830Z,48.20
2016-12-29T11:34:33.738Z,48.30
2016-12-29T11:35:33.085Z,48.20
2016-12-29T11:36:27.465Z,48.30
2016-12-29T11:37:33.245Z,48.30
2016-12-29T11:38:34.220Z,48.20
2016-12-29T11:39:38.752Z,48.30
2016-12-29T11:40:48.206Z,48.20
2016-12-29T11:41:32.411Z,48.20
2016-12-29T11:42:30.436Z,48.20
2016-12-29T11:43:33.909Z,48.30
2016-12-29T11:44:38.592Z,48.30
2016-12-29T11:45:34.617Z,48.30
2016-12-29T11:46:30.408Z,48.30
2016-12-29T11:47:27.535Z,48.20
2016-12-29T11:48:34.543Z,48.40
2016-12-29T11:49:32.915Z,48.20
2016-12-29T11:50:31.781Z,48.30
2016-12-29T11:51:25.621Z,48.30
2016-12-29T11:52:31.673Z,48.20
2016-12-29T11:53:26.044Z,48.30
2016-12-29T11:54:27.538Z,48.30
2016-12-29T11:55:48.564Z,48.30
2016-12-29T11:56:34.595Z,48.20
2016-12-29T11:57:24.524Z,48.30
2016-12-29T11:58:34.443Z,48.40
2016-12-29T11:59:42.528Z,48.30
2016-12-29T12:00:33.739Z,48.40
2016-12-29T12:01:33.733Z,48.40
2016-12-29T12:02:33.769Z,48.30
2016-12-29T12:03:29.458Z,48.30
2016-12-29T12:04:32.408Z,48.40
2016-12-29T12:05:33.757Z,48.40
2016-12-29T12:06:38.155Z,48.50
2016-12-29T12:07:30.361Z,48.60
2016-12-29T12:08:38.016Z,48.60
2016-12-29T12:09:32.553Z,48.60
2016-12-29T12:10:25.753Z,48.60
2016-12-29T12:11:27.423Z,48.50
2016-12-29T12:12:26.693Z,48.60
2016-12-29T12:13:24.338Z,48.60
2016-12-29T12:14:26.865Z,is
2016-12-29T12:15:33.931Z,48.70
2016-12-29T12:16:41.712Z,48.70
2016-12-29T12:17:27.926Z,48.70
2016-12-29T12:18:22.524Z,48.70
2016-12-29T12:19:33.424Z,48.70
2016-12-29T12:20:28.994Z,48.60
2016-12-29T12:21:27.789Z,48.60
2016-12-29T12:22:32.492Z,48.70
2016-12-29T12:23:29.854Z,48.70
2016-12-29T12:24:28.715Z,48.70
2016-12-29T12:25:29.906Z,48.70
2016-12-29T12:26:28.928Z,48.70
2016-12-29T12:27:29.054Z,48.70
2016-12-29T12:28:33.143Z,48.80
2016-12-29T12:29:40.033Z,49.00
2016-12-29T12:30:31.679Z,48.80
2016-12-29T12:31:21.979Z,48.70
2016-12-29T12:32:22.576Z,48.80
2016-12-29T12:33:27.727Z,48.80
2016-12-29T12:34:30.299Z,48.80
2016-12-29T12:35:33.067Z,48.80
2016-12-29T12:36:34.005Z,49.00
2016-12-29T12:37:39.805Z,48.90
2016-12-29T12:38:32.923Z,48.90
2016-12-29T12:39:39.158Z,49.00
2016-12-29T12:40:32.686Z,48.90
2016-12-29T12:41:31.719Z,48.90
2016-12-29T12:42:34.544Z,49.00
2016-12-29T12:43:33.364Z,48.80
2016-12-29T12:44:35.509Z,48.90
2016-12-29T12:45:25.321Z,48.90
2016-12-29T12:46:28.017Z,48.90
2016-12-29T12:47:31.676Z,48.90
2016-12-29T12:48:29.475Z,is
2016-12-29T12:49:29.094Z,48.90
2016-12-29T12:50:28.680Z,48.90
2016-12-29T12:51:31.995Z,48.90
2016-12-29T12:52:27.625Z,49.00
2016-12-29T12:53:29.939Z,49.10
2016-12-29T12:54:40.081Z,49.10
2016-12-29T12:55:30.727Z,49.10
2016-12-29T12:56:33.506Z,49.20
2016-12-29T12:57:32.953Z,49.20
2016-12-29T12:58:27.004Z,49.20
2016-12-29T12:59:42.926Z,49.30
2016-12-29T13:00:29.734Z,49.30
2016-12-29T13:01:48.653Z,49.30
2016-12-29T13:02:33.119Z,49.40
2016-12-29T13:03:26.169Z,49.30
2016-12-29T13:05:30.975Z,49.40
2016-12-29T13:06:28.091Z,49.40
2016-12-29T13:07:55.784Z,49.40
2016-12-29T13:08:28.022Z,49.50